Pine Grove Furnace, Pennsylvania
Current Conditions -  °F | °C
As of 11:53 AM on Sunday 21 Dec 2014 (Local Time) from KTHV Reporting Station
Few Clouds Few Clouds  
Wind Chill: -1°   Ceiling: Unl
Heat Index:   Visibility: 10mi
Dew Point: -6°   Wind: 8mph
Humidity: 54%   Direction: 310°NW
Pressure: 30.32"   Gusts: NA
Location:  40.0362°N, 77.1908°W
Report Text: KTHV 211653Z AUTO 31007KT 10SM FEW028 03/M06 A3032 RMK AO2 SLP274 T00281056
Loading
Personal Weather Stations






























Interactive Weather Map New forecast layout! Learn more

10-Day Weather Forecast

Advertisements
Track Severe Weather on mobile